sensor_id;sensor_type;location;lat;lon;timestamp;P1;durP1;ratioP1;P2;durP2;ratioP2
37593;SDS011;23441;50.856;6.076;2023-04-01T00:02:18;3.67;;;0.95;;
37593;SDS011;23441;50.856;6.076;2023-04-01T00:04:44;3.45;;;1.00;;
37593;SDS011;23441;50.856;6.076;2023-04-01T00:07:10;3.17;;;1.10;;
37593;SDS011;23441;50.856;6.076;2023-04-01T00:09:36;5.00;;;1.23;;
37593;SDS011;23441;50.856;6.076;2023-04-01T00:12:02;3.85;;;1.20;;
37593;SDS011;23441;50.856;6.076;2023-04-01T00:14:28;5.35;;;1.20;;
37593;SDS011;23441;50.856;6.076;2023-04-01T00:16:54;4.38;;;0.95;;
37593;SDS011;23441;50.856;6.076;2023-04-01T00:19:20;5.07;;;0.93;;
37593;SDS011;23441;50.856;6.076;2023-04-01T00:21:45;4.10;;;1.02;;
37593;SDS011;23441;50.856;6.076;2023-04-01T00:24:11;2.63;;;0.85;;
37593;SDS011;23441;50.856;6.076;2023-04-01T00:26:37;3.95;;;1.23;;
37593;SDS011;23441;50.856;6.076;2023-04-01T00:29:02;5.28;;;1.33;;
37593;SDS011;23441;50.856;6.076;2023-04-01T00:31:28;3.25;;;0.85;;
37593;SDS011;23441;50.856;6.076;2023-04-01T00:33:54;4.70;;;0.95;;
37593;SDS011;23441;50.856;6.076;2023-04-01T00:36:21;2.60;;;1.10;;
37593;SDS011;23441;50.856;6.076;2023-04-01T00:38:48;3.15;;;1.15;;
37593;SDS011;23441;50.856;6.076;2023-04-01T00:41:14;4.40;;;1.33;;
37593;SDS011;23441;50.856;6.076;2023-04-01T00:43:42;2.67;;;0.93;;
37593;SDS011;23441;50.856;6.076;2023-04-01T00:46:09;5.18;;;1.67;;
37593;SDS011;23441;50.856;6.076;2023-04-01T00:48:39;4.38;;;1.27;;
37593;SDS011;23441;50.856;6.076;2023-04-01T00:51:11;5.70;;;1.05;;
37593;SDS011;23441;50.856;6.076;2023-04-01T00:53:43;4.35;;;0.93;;
37593;SDS011;23441;50.856;6.076;2023-04-01T00:56:16;3.03;;;1.27;;
37593;SDS011;23441;50.856;6.076;2023-04-01T00:58:47;4.15;;;1.00;;
37593;SDS011;23441;50.856;6.076;2023-04-01T01:01:16;6.22;;;1.58;;
37593;SDS011;23441;50.856;6.076;2023-04-01T01:03:42;3.22;;;1.08;;
37593;SDS011;23441;50.856;6.076;2023-04-01T01:06:09;5.13;;;1.20;;
37593;SDS011;23441;50.856;6.076;2023-04-01T01:09:06;3.50;;;1.00;;
37593;SDS011;23441;50.856;6.076;2023-04-01T01:11:44;1.33;;;0.70;;
37593;SDS011;23441;50.856;6.076;2023-04-01T01:17:15;2.92;;;0.90;;
37593;SDS011;23441;50.856;6.076;2023-04-01T01:20:10;4.45;;;0.93;;
37593;SDS011;23441;50.856;6.076;2023-04-01T01:25:25;3.63;;;1.25;;
37593;SDS011;23441;50.856;6.076;2023-04-01T01:31:25;2.53;;;0.90;;
37593;SDS011;23441;50.856;6.076;2023-04-01T01:36:30;4.13;;;1.10;;
37593;SDS011;23441;50.856;6.076;2023-04-01T01:39:02;2.00;;;1.00;;
37593;SDS011;23441;50.856;6.076;2023-04-01T01:41:29;2.65;;;0.70;;
37593;SDS011;23441;50.856;6.076;2023-04-01T01:43:57;3.00;;;1.05;;
37593;SDS011;23441;50.856;6.076;2023-04-01T01:46:26;2.47;;;0.70;;
37593;SDS011;23441;50.856;6.076;2023-04-01T01:48:54;2.88;;;0.90;;
37593;SDS011;23441;50.856;6.076;2023-04-01T01:51:22;3.05;;;0.82;;
37593;SDS011;23441;50.856;6.076;2023-04-01T01:53:49;0.63;;;0.50;;
37593;SDS011;23441;50.856;6.076;2023-04-01T01:56:15;1.15;;;0.60;;
37593;SDS011;23441;50.856;6.076;2023-04-01T01:58:50;1.20;;;0.68;;
37593;SDS011;23441;50.856;6.076;2023-04-01T02:01:20;1.02;;;0.43;;
37593;SDS011;23441;50.856;6.076;2023-04-01T02:03:51;2.45;;;0.80;;
37593;SDS011;23441;50.856;6.076;2023-04-01T02:06:18;0.90;;;0.55;;
37593;SDS011;23441;50.856;6.076;2023-04-01T02:08:47;0.85;;;0.60;;
37593;SDS011;23441;50.856;6.076;2023-04-01T02:11:31;2.10;;;0.60;;
37593;SDS011;23441;50.856;6.076;2023-04-01T02:14:11;0.68;;;0.50;;
37593;SDS011;23441;50.856;6.076;2023-04-01T02:16:45;1.00;;;0.50;;
37593;SDS011;23441;50.856;6.076;2023-04-01T02:19:17;1.00;;;0.60;;
37593;SDS011;23441;50.856;6.076;2023-04-01T02:21:49;2.55;;;0.55;;
37593;SDS011;23441;50.856;6.076;2023-04-01T02:24:18;1.15;;;0.63;;
37593;SDS011;23441;50.856;6.076;2023-04-01T02:26:47;0.80;;;0.57;;
37593;SDS011;23441;50.856;6.076;2023-04-01T02:29:15;2.40;;;0.57;;
37593;SDS011;23441;50.856;6.076;2023-04-01T02:31:43;1.92;;;0.60;;
37593;SDS011;23441;50.856;6.076;2023-04-01T02:34:09;2.83;;;0.60;;
37593;SDS011;23441;50.856;6.076;2023-04-01T02:36:35;4.32;;;0.73;;
37593;SDS011;23441;50.856;6.076;2023-04-01T02:39:01;1.25;;;0.60;;
37593;SDS011;23441;50.856;6.076;2023-04-01T02:41:29;1.42;;;0.80;;
37593;SDS011;23441;50.856;6.076;2023-04-01T02:43:55;2.88;;;0.70;;
37593;SDS011;23441;50.856;6.076;2023-04-01T02:46:22;2.42;;;0.70;;
37593;SDS011;23441;50.856;6.076;2023-04-01T02:48:47;2.17;;;0.73;;
37593;SDS011;23441;50.856;6.076;2023-04-01T02:51:13;3.22;;;0.73;;
37593;SDS011;23441;50.856;6.076;2023-04-01T02:53:39;3.63;;;0.63;;
37593;SDS011;23441;50.856;6.076;2023-04-01T02:56:05;2.10;;;0.77;;
37593;SDS011;23441;50.856;6.076;2023-04-01T02:58:30;3.20;;;0.70;;
37593;SDS011;23441;50.856;6.076;2023-04-01T03:00:56;1.25;;;0.73;;
37593;SDS011;23441;50.856;6.076;2023-04-01T03:03:22;1.77;;;0.70;;
37593;SDS011;23441;50.856;6.076;2023-04-01T03:05:47;1.35;;;0.70;;
37593;SDS011;23441;50.856;6.076;2023-04-01T03:08:13;1.33;;;0.80;;
37593;SDS011;23441;50.856;6.076;2023-04-01T03:10:39;0.60;;;0.60;;
37593;SDS011;23441;50.856;6.076;2023-04-01T03:13:05;1.67;;;0.93;;
37593;SDS011;23441;50.856;6.076;2023-04-01T03:15:31;1.38;;;0.60;;
37593;SDS011;23441;50.856;6.076;2023-04-01T03:17:56;0.82;;;0.80;;
37593;SDS011;23441;50.856;6.076;2023-04-01T03:20:22;1.58;;;0.70;;
37593;SDS011;23441;50.856;6.076;2023-04-01T03:22:48;1.80;;;0.80;;
37593;SDS011;23441;50.856;6.076;2023-04-01T03:25:14;2.08;;;0.85;;
37593;SDS011;23441;50.856;6.076;2023-04-01T03:27:39;1.55;;;0.70;;
37593;SDS011;23441;50.856;6.076;2023-04-01T03:30:05;1.83;;;0.77;;
37593;SDS011;23441;50.856;6.076;2023-04-01T03:32:31;1.52;;;0.77;;
37593;SDS011;23441;50.856;6.076;2023-04-01T03:34:57;1.75;;;0.70;;
37593;SDS011;23441;50.856;6.076;2023-04-01T03:37:23;1.02;;;0.70;;
37593;SDS011;23441;50.856;6.076;2023-04-01T03:39:49;4.78;;;0.70;;
37593;SDS011;23441;50.856;6.076;2023-04-01T03:42:15;1.33;;;0.93;;
37593;SDS011;23441;50.856;6.076;2023-04-01T03:44:41;1.02;;;0.73;;
37593;SDS011;23441;50.856;6.076;2023-04-01T03:47:06;1.75;;;0.80;;
37593;SDS011;23441;50.856;6.076;2023-04-01T03:49:34;3.00;;;1.00;;
37593;SDS011;23441;50.856;6.076;2023-04-01T03:51:59;1.98;;;0.90;;
37593;SDS011;23441;50.856;6.076;2023-04-01T03:54:25;1.70;;;1.10;;
37593;SDS011;23441;50.856;6.076;2023-04-01T03:56:51;1.80;;;0.95;;
37593;SDS011;23441;50.856;6.076;2023-04-01T03:59:16;2.97;;;1.05;;
37593;SDS011;23441;50.856;6.076;2023-04-01T04:01:42;2.53;;;1.17;;
37593;SDS011;23441;50.856;6.076;2023-04-01T04:04:10;3.35;;;1.40;;
37593;SDS011;23441;50.856;6.076;2023-04-01T04:06:38;2.00;;;1.10;;
37593;SDS011;23441;50.856;6.076;2023-04-01T04:09:03;1.98;;;1.10;;
37593;SDS011;23441;50.856;6.076;2023-04-01T04:11:30;1.52;;;1.42;;
37593;SDS011;23441;50.856;6.076;2023-04-01T04:13:57;4.45;;;1.65;;
37593;SDS011;23441;50.856;6.076;2023-04-01T04:16:23;2.55;;;1.70;;
37593;SDS011;23441;50.856;6.076;2023-04-01T04:18:49;2.92;;;1.38;;
37593;SDS011;23441;50.856;6.076;2023-04-01T04:21:16;1.92;;;1.73;;
37593;SDS011;23441;50.856;6.076;2023-04-01T04:23:42;5.18;;;1.92;;
37593;SDS011;23441;50.856;6.076;2023-04-01T04:26:09;2.45;;;2.13;;
37593;SDS011;23441;50.856;6.076;2023-04-01T04:28:37;3.38;;;2.30;;
37593;SDS011;23441;50.856;6.076;2023-04-01T04:31:03;3.30;;;2.28;;
37593;SDS011;23441;50.856;6.076;2023-04-01T04:33:30;6.97;;;2.72;;
37593;SDS011;23441;50.856;6.076;2023-04-01T04:35:56;4.13;;;2.70;;
37593;SDS011;23441;50.856;6.076;2023-04-01T04:38:23;4.68;;;2.65;;
37593;SDS011;23441;50.856;6.076;2023-04-01T04:40:49;8.23;;;2.85;;
37593;SDS011;23441;50.856;6.076;2023-04-01T04:43:15;2.60;;;2.40;;
37593;SDS011;23441;50.856;6.076;2023-04-01T04:45:41;4.85;;;2.28;;
37593;SDS011;23441;50.856;6.076;2023-04-01T04:48:11;3.78;;;2.20;;
37593;SDS011;23441;50.856;6.076;2023-04-01T04:50:43;4.13;;;2.20;;
37593;SDS011;23441;50.856;6.076;2023-04-01T04:53:10;2.83;;;1.98;;
37593;SDS011;23441;50.856;6.076;2023-04-01T04:55:36;1.92;;;1.70;;
37593;SDS011;23441;50.856;6.076;2023-04-01T04:58:02;2.10;;;1.65;;
37593;SDS011;23441;50.856;6.076;2023-04-01T05:00:28;2.30;;;1.75;;
37593;SDS011;23441;50.856;6.076;2023-04-01T05:02:53;2.00;;;1.80;;
37593;SDS011;23441;50.856;6.076;2023-04-01T05:05:19;2.45;;;1.90;;
37593;SDS011;23441;50.856;6.076;2023-04-01T05:07:45;2.67;;;1.90;;
37593;SDS011;23441;50.856;6.076;2023-04-01T05:10:10;2.90;;;2.60;;
37593;SDS011;23441;50.856;6.076;2023-04-01T05:12:36;2.30;;;2.10;;
37593;SDS011;23441;50.856;6.076;2023-04-01T05:15:04;4.18;;;2.38;;
37593;SDS011;23441;50.856;6.076;2023-04-01T05:17:30;5.38;;;3.15;;
37593;SDS011;23441;50.856;6.076;2023-04-01T05:19:56;4.30;;;2.83;;
37593;SDS011;23441;50.856;6.076;2023-04-01T05:22:22;5.93;;;3.42;;
37593;SDS011;23441;50.856;6.076;2023-04-01T05:24:48;3.70;;;3.05;;
37593;SDS011;23441;50.856;6.076;2023-04-01T05:27:14;3.95;;;2.95;;
37593;SDS011;23441;50.856;6.076;2023-04-01T05:29:40;6.05;;;2.78;;
37593;SDS011;23441;50.856;6.076;2023-04-01T05:32:06;4.07;;;2.83;;
37593;SDS011;23441;50.856;6.076;2023-04-01T05:34:31;4.63;;;3.05;;
37593;SDS011;23441;50.856;6.076;2023-04-01T05:36:57;6.00;;;3.33;;
37593;SDS011;23441;50.856;6.076;2023-04-01T05:39:23;6.00;;;3.88;;
37593;SDS011;23441;50.856;6.076;2023-04-01T05:41:48;7.78;;;4.57;;
37593;SDS011;23441;50.856;6.076;2023-04-01T05:44:14;9.27;;;4.95;;
37593;SDS011;23441;50.856;6.076;2023-04-01T05:46:40;8.63;;;4.88;;
37593;SDS011;23441;50.856;6.076;2023-04-01T05:49:06;8.32;;;4.22;;
37593;SDS011;23441;50.856;6.076;2023-04-01T05:51:32;8.10;;;5.18;;
37593;SDS011;23441;50.856;6.076;2023-04-01T05:53:57;7.72;;;5.22;;
37593;SDS011;23441;50.856;6.076;2023-04-01T05:56:23;8.93;;;4.72;;
37593;SDS011;23441;50.856;6.076;2023-04-01T05:58:50;8.93;;;4.20;;
37593;SDS011;23441;50.856;6.076;2023-04-01T06:01:17;8.93;;;5.00;;
37593;SDS011;23441;50.856;6.076;2023-04-01T06:03:43;9.30;;;5.38;;
37593;SDS011;23441;50.856;6.076;2023-04-01T06:06:13;9.80;;;5.05;;
37593;SDS011;23441;50.856;6.076;2023-04-01T06:08:41;10.18;;;5.20;;
37593;SDS011;23441;50.856;6.076;2023-04-01T06:16:49;8.50;;;5.22;;
37593;SDS011;23441;50.856;6.076;2023-04-01T06:24:55;9.63;;;4.35;;
37593;SDS011;23441;50.856;6.076;2023-04-01T06:44:14;9.45;;;4.57;;
37593;SDS011;23441;50.856;6.076;2023-04-01T06:46:58;7.95;;;4.95;;
37593;SDS011;23441;50.856;6.076;2023-04-01T06:49:55;6.35;;;4.05;;
37593;SDS011;23441;50.856;6.076;2023-04-01T06:52:46;6.05;;;4.32;;
37593;SDS011;23441;50.856;6.076;2023-04-01T06:55:19;8.43;;;4.60;;
37593;SDS011;23441;50.856;6.076;2023-04-01T06:57:53;5.97;;;3.97;;
37593;SDS011;23441;50.856;6.076;2023-04-01T07:03:05;7.18;;;4.25;;
37593;SDS011;23441;50.856;6.076;2023-04-01T07:05:46;7.65;;;4.00;;
37593;SDS011;23441;50.856;6.076;2023-04-01T07:08:13;8.45;;;4.45;;
37593;SDS011;23441;50.856;6.076;2023-04-01T07:13:27;6.63;;;3.95;;
37593;SDS011;23441;50.856;6.076;2023-04-01T07:16:10;4.82;;;3.35;;
37593;SDS011;23441;50.856;6.076;2023-04-01T07:18:52;6.00;;;3.45;;
37593;SDS011;23441;50.856;6.076;2023-04-01T07:21:28;6.30;;;3.78;;
37593;SDS011;23441;50.856;6.076;2023-04-01T07:24:03;4.28;;;2.78;;
37593;SDS011;23441;50.856;6.076;2023-04-01T07:26:31;4.45;;;2.88;;
37593;SDS011;23441;50.856;6.076;2023-04-01T07:28:57;5.00;;;3.45;;
37593;SDS011;23441;50.856;6.076;2023-04-01T07:36:48;4.30;;;2.90;;
37593;SDS011;23441;50.856;6.076;2023-04-01T07:42:20;3.03;;;2.38;;
37593;SDS011;23441;50.856;6.076;2023-04-01T07:45:09;5.35;;;2.83;;
37593;SDS011;23441;50.856;6.076;2023-04-01T07:47:53;4.38;;;3.10;;
37593;SDS011;23441;50.856;6.076;2023-04-01T07:50:50;4.18;;;2.22;;
37593;SDS011;23441;50.856;6.076;2023-04-01T07:53:26;3.75;;;2.92;;
37593;SDS011;23441;50.856;6.076;2023-04-01T07:56:10;4.80;;;3.05;;
37593;SDS011;23441;50.856;6.076;2023-04-01T08:01:30;4.22;;;2.80;;
37593;SDS011;23441;50.856;6.076;2023-04-01T08:10:17;5.38;;;2.40;;
37593;SDS011;23441;50.856;6.076;2023-04-01T08:15:28;4.43;;;2.00;;
37593;SDS011;23441;50.856;6.076;2023-04-01T08:18:09;3.05;;;2.10;;
37593;SDS011;23441;50.856;6.076;2023-04-01T08:20:47;5.25;;;2.03;;
37593;SDS011;23441;50.856;6.076;2023-04-01T08:25:48;3.33;;;1.80;;
37593;SDS011;23441;50.856;6.076;2023-04-01T08:28:41;3.85;;;2.20;;
37593;SDS011;23441;50.856;6.076;2023-04-01T08:31:16;2.30;;;1.80;;
37593;SDS011;23441;50.856;6.076;2023-04-01T08:34:04;2.78;;;1.85;;
37593;SDS011;23441;50.856;6.076;2023-04-01T08:36:40;2.92;;;1.92;;
37593;SDS011;23441;50.856;6.076;2023-04-01T08:39:12;2.00;;;1.80;;
37593;SDS011;23441;50.856;6.076;2023-04-01T08:50:23;2.15;;;1.95;;
37593;SDS011;23441;50.856;6.076;2023-04-01T08:53:21;2.75;;;1.80;;
37593;SDS011;23441;50.856;6.076;2023-04-01T09:04:13;1.85;;;1.42;;
37593;SDS011;23441;50.856;6.076;2023-04-01T09:06:58;1.92;;;1.40;;
37593;SDS011;23441;50.856;6.076;2023-04-01T09:10:02;1.85;;;1.50;;
37593;SDS011;23441;50.856;6.076;2023-04-01T09:12:59;2.03;;;1.83;;
37593;SDS011;23441;50.856;6.076;2023-04-01T09:42:53;3.40;;;2.15;;
37593;SDS011;23441;50.856;6.076;2023-04-01T09:45:58;3.65;;;2.10;;
37593;SDS011;23441;50.856;6.076;2023-04-01T09:48:42;1.83;;;1.63;;
37593;SDS011;23441;50.856;6.076;2023-04-01T09:51:47;2.70;;;1.92;;
37593;SDS011;23441;50.856;6.076;2023-04-01T09:54:13;3.88;;;2.20;;
37593;SDS011;23441;50.856;6.076;2023-04-01T10:16:00;2.80;;;1.75;;
37593;SDS011;23441;50.856;6.076;2023-04-01T10:21:53;2.28;;;1.75;;
37593;SDS011;23441;50.856;6.076;2023-04-01T10:38:56;2.50;;;2.30;;
37593;SDS011;23441;50.856;6.076;2023-04-01T10:47:33;2.95;;;1.95;;
37593;SDS011;23441;50.856;6.076;2023-04-01T10:50:24;2.08;;;1.88;;
37593;SDS011;23441;50.856;6.076;2023-04-01T10:56:15;2.25;;;2.05;;
37593;SDS011;23441;50.856;6.076;2023-04-01T10:59:10;4.03;;;2.47;;
37593;SDS011;23441;50.856;6.076;2023-04-01T11:02:05;2.65;;;2.45;;
37593;SDS011;23441;50.856;6.076;2023-04-01T11:24:55;3.58;;;2.50;;
37593;SDS011;23441;50.856;6.076;2023-04-01T11:27:47;2.95;;;2.65;;
37593;SDS011;23441;50.856;6.076;2023-04-01T11:41:54;3.33;;;2.80;;
37593;SDS011;23441;50.856;6.076;2023-04-01T11:44:29;3.60;;;3.13;;
37593;SDS011;23441;50.856;6.076;2023-04-01T11:47:13;3.90;;;3.50;;
37593;SDS011;23441;50.856;6.076;2023-04-01T11:55:56;5.60;;;4.03;;
37593;SDS011;23441;50.856;6.076;2023-04-01T12:18:13;5.30;;;4.32;;
37593;SDS011;23441;50.856;6.076;2023-04-01T12:20:50;4.60;;;4.07;;
37593;SDS011;23441;50.856;6.076;2023-04-01T12:34:29;4.82;;;4.07;;
37593;SDS011;23441;50.856;6.076;2023-04-01T12:39:57;4.82;;;3.85;;
37593;SDS011;23441;50.856;6.076;2023-04-01T12:51:14;4.38;;;3.90;;
37593;SDS011;23441;50.856;6.076;2023-04-01T13:05:10;6.25;;;3.83;;
37593;SDS011;23441;50.856;6.076;2023-04-01T13:08:10;4.72;;;4.03;;
37593;SDS011;23441;50.856;6.076;2023-04-01T13:19:07;4.18;;;3.03;;
37593;SDS011;23441;50.856;6.076;2023-04-01T13:25:00;3.65;;;3.17;;
37593;SDS011;23441;50.856;6.076;2023-04-01T13:30:24;3.50;;;3.20;;
37593;SDS011;23441;50.856;6.076;2023-04-01T13:33:14;4.00;;;3.50;;
37593;SDS011;23441;50.856;6.076;2023-04-01T13:36:16;3.17;;;2.85;;
37593;SDS011;23441;50.856;6.076;2023-04-01T13:39:10;3.45;;;3.05;;
37593;SDS011;23441;50.856;6.076;2023-04-01T13:44:41;5.03;;;3.50;;
37593;SDS011;23441;50.856;6.076;2023-04-01T13:58:22;3.20;;;2.90;;
37593;SDS011;23441;50.856;6.076;2023-04-01T14:01:10;3.80;;;3.20;;
37593;SDS011;23441;50.856;6.076;2023-04-01T14:20:39;6.47;;;4.70;;
37593;SDS011;23441;50.856;6.076;2023-04-01T14:23:30;6.18;;;4.68;;
37593;SDS011;23441;50.856;6.076;2023-04-01T14:29:29;5.40;;;4.60;;
37593;SDS011;23441;50.856;6.076;2023-04-01T14:32:11;6.28;;;4.50;;
37593;SDS011;23441;50.856;6.076;2023-04-01T14:45:45;5.70;;;4.85;;
37593;SDS011;23441;50.856;6.076;2023-04-01T14:51:08;7.55;;;5.25;;
37593;SDS011;23441;50.856;6.076;2023-04-01T14:53:36;6.15;;;4.93;;
37593;SDS011;23441;50.856;6.076;2023-04-01T14:56:07;5.90;;;4.70;;
37593;SDS011;23441;50.856;6.076;2023-04-01T14:58:46;8.85;;;5.07;;
37593;SDS011;23441;50.856;6.076;2023-04-01T15:18:39;6.15;;;4.10;;
37593;SDS011;23441;50.856;6.076;2023-04-01T15:23:45;5.78;;;4.28;;
37593;SDS011;23441;50.856;6.076;2023-04-01T15:31:25;2.15;;;1.90;;
37593;SDS011;23441;50.856;6.076;2023-04-01T15:48:31;3.50;;;3.20;;
37593;SDS011;23441;50.856;6.076;2023-04-01T15:54:00;5.18;;;3.80;;
37593;SDS011;23441;50.856;6.076;2023-04-01T15:56:43;5.43;;;3.28;;
37593;SDS011;23441;50.856;6.076;2023-04-01T15:59:21;4.57;;;3.25;;
37593;SDS011;23441;50.856;6.076;2023-04-01T16:10:09;2.42;;;2.22;;
37593;SDS011;23441;50.856;6.076;2023-04-01T16:15:29;2.58;;;2.20;;
37593;SDS011;23441;50.856;6.076;2023-04-01T16:20:51;3.13;;;2.85;;
37593;SDS011;23441;50.856;6.076;2023-04-01T16:23:29;5.35;;;2.83;;
37593;SDS011;23441;50.856;6.076;2023-04-01T16:26:08;3.70;;;3.40;;
37593;SDS011;23441;50.856;6.076;2023-04-01T16:29:02;4.95;;;3.63;;
37593;SDS011;23441;50.856;6.076;2023-04-01T16:31:37;4.13;;;3.72;;
37593;SDS011;23441;50.856;6.076;2023-04-01T16:34:19;4.30;;;3.90;;
37593;SDS011;23441;50.856;6.076;2023-04-01T16:36:55;4.43;;;4.03;;
37593;SDS011;23441;50.856;6.076;2023-04-01T16:40:44;4.45;;;3.72;;
37593;SDS011;23441;50.856;6.076;2023-04-01T16:42:47;6.05;;;5.45;;
37593;SDS011;23441;50.856;6.076;2023-04-01T16:45:36;4.85;;;4.35;;
37593;SDS011;23441;50.856;6.076;2023-04-01T16:51:16;5.22;;;4.47;;
37593;SDS011;23441;50.856;6.076;2023-04-01T16:54:02;6.80;;;4.90;;
37593;SDS011;23441;50.856;6.076;2023-04-01T16:56:49;5.97;;;4.38;;
37593;SDS011;23441;50.856;6.076;2023-04-01T16:59:33;4.93;;;4.00;;
37593;SDS011;23441;50.856;6.076;2023-04-01T17:02:08;5.65;;;3.83;;
37593;SDS011;23441;50.856;6.076;2023-04-01T17:15:31;3.85;;;3.40;;
37593;SDS011;23441;50.856;6.076;2023-04-01T17:18:23;4.30;;;3.85;;
37593;SDS011;23441;50.856;6.076;2023-04-01T17:23:52;3.97;;;3.45;;
37593;SDS011;23441;50.856;6.076;2023-04-01T17:26:43;4.60;;;4.20;;
37593;SDS011;23441;50.856;6.076;2023-04-01T17:36:56;6.93;;;6.18;;
37593;SDS011;23441;50.856;6.076;2023-04-01T17:50:07;6.60;;;5.80;;
37593;SDS011;23441;50.856;6.076;2023-04-01T17:58:28;6.78;;;5.80;;
37593;SDS011;23441;50.856;6.076;2023-04-01T18:06:25;8.18;;;6.40;;
37593;SDS011;23441;50.856;6.076;2023-04-01T18:09:20;7.90;;;6.18;;
37593;SDS011;23441;50.856;6.076;2023-04-01T18:22:46;12.95;;;9.52;;
37593;SDS011;23441;50.856;6.076;2023-04-01T18:30:42;13.18;;;10.75;;
37593;SDS011;23441;50.856;6.076;2023-04-01T18:33:17;10.80;;;9.35;;
37593;SDS011;23441;50.856;6.076;2023-04-01T18:36:09;10.90;;;8.10;;
37593;SDS011;23441;50.856;6.076;2023-04-01T18:41:43;11.15;;;9.10;;
37593;SDS011;23441;50.856;6.076;2023-04-01T18:44:36;10.68;;;7.13;;
37593;SDS011;23441;50.856;6.076;2023-04-01T18:50:15;6.57;;;5.00;;
37593;SDS011;23441;50.856;6.076;2023-04-01T18:52:44;5.50;;;4.18;;
37593;SDS011;23441;50.856;6.076;2023-04-01T18:58:11;6.88;;;5.05;;
37593;SDS011;23441;50.856;6.076;2023-04-01T19:03:40;8.45;;;6.05;;
37593;SDS011;23441;50.856;6.076;2023-04-01T19:08:58;5.10;;;4.45;;
37593;SDS011;23441;50.856;6.076;2023-04-01T19:23:15;6.07;;;5.38;;
37593;SDS011;23441;50.856;6.076;2023-04-01T19:25:55;6.93;;;5.68;;
37593;SDS011;23441;50.856;6.076;2023-04-01T19:28:27;5.95;;;5.32;;
37593;SDS011;23441;50.856;6.076;2023-04-01T19:31:33;7.78;;;5.55;;
37593;SDS011;23441;50.856;6.076;2023-04-01T19:36:47;7.95;;;5.88;;
37593;SDS011;23441;50.856;6.076;2023-04-01T19:39:27;8.32;;;5.95;;
37593;SDS011;23441;50.856;6.076;2023-04-01T19:42:31;7.30;;;5.25;;
37593;SDS011;23441;50.856;6.076;2023-04-01T19:53:42;7.00;;;5.75;;
37593;SDS011;23441;50.856;6.076;2023-04-01T19:56:15;7.43;;;5.40;;
37593;SDS011;23441;50.856;6.076;2023-04-01T19:58:54;6.97;;;5.40;;
37593;SDS011;23441;50.856;6.076;2023-04-01T20:01:43;9.85;;;6.18;;
37593;SDS011;23441;50.856;6.076;2023-04-01T20:04:50;8.93;;;6.65;;
37593;SDS011;23441;50.856;6.076;2023-04-01T20:15:33;8.95;;;6.95;;
37593;SDS011;23441;50.856;6.076;2023-04-01T20:18:13;8.70;;;6.88;;
37593;SDS011;23441;50.856;6.076;2023-04-01T20:20:55;8.63;;;7.03;;
37593;SDS011;23441;50.856;6.076;2023-04-01T20:26:10;7.72;;;6.03;;
37593;SDS011;23441;50.856;6.076;2023-04-01T20:28:42;8.38;;;7.03;;
37593;SDS011;23441;50.856;6.076;2023-04-01T20:31:31;7.97;;;6.20;;
37593;SDS011;23441;50.856;6.076;2023-04-01T20:37:05;8.25;;;6.55;;
37593;SDS011;23441;50.856;6.076;2023-04-01T20:51:14;10.68;;;8.13;;
37593;SDS011;23441;50.856;6.076;2023-04-01T20:59:58;8.32;;;6.18;;
37593;SDS011;23441;50.856;6.076;2023-04-01T21:05:50;9.65;;;7.50;;
37593;SDS011;23441;50.856;6.076;2023-04-01T21:18:30;11.82;;;9.10;;
37593;SDS011;23441;50.856;6.076;2023-04-01T21:28:49;12.60;;;9.40;;
37593;SDS011;23441;50.856;6.076;2023-04-01T21:42:22;10.65;;;7.65;;
37593;SDS011;23441;50.856;6.076;2023-04-01T21:44:55;9.48;;;7.53;;
37593;SDS011;23441;50.856;6.076;2023-04-01T22:04:05;20.48;;;14.73;;
37593;SDS011;23441;50.856;6.076;2023-04-01T22:06:52;16.20;;;11.65;;
37593;SDS011;23441;50.856;6.076;2023-04-01T22:09:29;13.85;;;10.55;;
37593;SDS011;23441;50.856;6.076;2023-04-01T22:14:51;17.23;;;12.65;;
37593;SDS011;23441;50.856;6.076;2023-04-01T22:26:02;10.15;;;8.10;;
37593;SDS011;23441;50.856;6.076;2023-04-01T22:28:48;8.38;;;6.88;;
37593;SDS011;23441;50.856;6.076;2023-04-01T22:31:38;10.75;;;6.60;;
37593;SDS011;23441;50.856;6.076;2023-04-01T22:42:29;12.02;;;9.30;;
37593;SDS011;23441;50.856;6.076;2023-04-01T22:50:21;16.33;;;10.77;;
37593;SDS011;23441;50.856;6.076;2023-04-01T22:52:58;18.92;;;11.65;;
37593;SDS011;23441;50.856;6.076;2023-04-01T22:55:40;18.17;;;11.88;;
37593;SDS011;23441;50.856;6.076;2023-04-01T22:58:10;22.40;;;13.50;;
37593;SDS011;23441;50.856;6.076;2023-04-01T23:00:52;23.15;;;14.27;;
37593;SDS011;23441;50.856;6.076;2023-04-01T23:03:33;22.60;;;13.70;;
37593;SDS011;23441;50.856;6.076;2023-04-01T23:06:04;27.35;;;15.68;;
37593;SDS011;23441;50.856;6.076;2023-04-01T23:11:02;20.60;;;13.05;;
37593;SDS011;23441;50.856;6.076;2023-04-01T23:13:38;17.23;;;11.48;;
37593;SDS011;23441;50.856;6.076;2023-04-01T23:16:08;17.58;;;11.40;;
37593;SDS011;23441;50.856;6.076;2023-04-01T23:18:36;12.82;;;9.60;;
37593;SDS011;23441;50.856;6.076;2023-04-01T23:21:41;13.98;;;9.32;;
37593;SDS011;23441;50.856;6.076;2023-04-01T23:24:43;13.15;;;9.27;;
37593;SDS011;23441;50.856;6.076;2023-04-01T23:27:42;13.70;;;10.05;;
37593;SDS011;23441;50.856;6.076;2023-04-01T23:33:20;12.30;;;8.95;;
37593;SDS011;23441;50.856;6.076;2023-04-01T23:38:35;11.57;;;8.48;;
37593;SDS011;23441;50.856;6.076;2023-04-01T23:41:03;11.00;;;7.95;;
37593;SDS011;23441;50.856;6.076;2023-04-01T23:43:32;10.65;;;8.10;;
37593;SDS011;23441;50.856;6.076;2023-04-01T23:46:02;12.65;;;8.50;;
37593;SDS011;23441;50.856;6.076;2023-04-01T23:48:32;11.95;;;8.32;;
37593;SDS011;23441;50.856;6.076;2023-04-01T23:51:05;10.60;;;7.93;;
37593;SDS011;23441;50.856;6.076;2023-04-01T23:53:46;10.88;;;8.13;;
37593;SDS011;23441;50.856;6.076;2023-04-01T23:56:16;10.35;;;7.00;;
